sensor_id;sensor_type;location;lat;lon;timestamp;temperature;humidity
35491;DHT22;21605;52.068;20.806;2023-02-28T00:01:17;-1.90;83.90
35491;DHT22;21605;52.068;20.806;2023-02-28T00:03:42;-2.00;83.80
35491;DHT22;21605;52.068;20.806;2023-02-28T00:06:08;-2.00;83.50
35491;DHT22;21605;52.068;20.806;2023-02-28T00:08:35;-2.00;83.30
35491;DHT22;21605;52.068;20.806;2023-02-28T00:11:02;-2.10;83.70
35491;DHT22;21605;52.068;20.806;2023-02-28T00:13:28;-2.10;83.50
35491;DHT22;21605;52.068;20.806;2023-02-28T00:16:01;-2.10;83.50
35491;DHT22;21605;52.068;20.806;2023-02-28T00:18:26;-2.20;83.70
35491;DHT22;21605;52.068;20.806;2023-02-28T00:20:52;-2.20;83.90
35491;DHT22;21605;52.068;20.806;2023-02-28T00:23:18;-2.20;83.60
35491;DHT22;21605;52.068;20.806;2023-02-28T00:25:43;-2.20;83.60
35491;DHT22;21605;52.068;20.806;2023-02-28T00:28:09;-2.20;83.70
35491;DHT22;21605;52.068;20.806;2023-02-28T00:30:34;-2.30;84.20
35491;DHT22;21605;52.068;20.806;2023-02-28T00:33:00;-2.30;84.90
35491;DHT22;21605;52.068;20.806;2023-02-28T00:35:25;-2.40;84.70
35491;DHT22;21605;52.068;20.806;2023-02-28T00:37:51;-2.40;84.90
35491;DHT22;21605;52.068;20.806;2023-02-28T00:40:17;-2.40;85.00
35491;DHT22;21605;52.068;20.806;2023-02-28T00:42:42;-2.50;85.20
35491;DHT22;21605;52.068;20.806;2023-02-28T00:45:08;-2.50;85.20
35491;DHT22;21605;52.068;20.806;2023-02-28T00:47:34;-2.50;85.50
35491;DHT22;21605;52.068;20.806;2023-02-28T00:50:00;-2.60;86.50
35491;DHT22;21605;52.068;20.806;2023-02-28T00:52:25;-2.60;86.50
35491;DHT22;21605;52.068;20.806;2023-02-28T00:54:51;-2.70;85.10
35491;DHT22;21605;52.068;20.806;2023-02-28T00:57:17;-2.70;85.10
35491;DHT22;21605;52.068;20.806;2023-02-28T00:59:42;-2.70;85.60
35491;DHT22;21605;52.068;20.806;2023-02-28T01:02:08;-2.70;85.90
35491;DHT22;21605;52.068;20.806;2023-02-28T01:04:34;-2.80;85.40
35491;DHT22;21605;52.068;20.806;2023-02-28T01:06:59;-2.80;85.20
35491;DHT22;21605;52.068;20.806;2023-02-28T01:09:25;-2.80;85.40
35491;DHT22;21605;52.068;20.806;2023-02-28T01:11:50;-2.80;85.50
35491;DHT22;21605;52.068;20.806;2023-02-28T01:14:17;-2.90;86.30
35491;DHT22;21605;52.068;20.806;2023-02-28T01:16:43;-2.90;86.10
35491;DHT22;21605;52.068;20.806;2023-02-28T01:19:09;-2.90;86.10
35491;DHT22;21605;52.068;20.806;2023-02-28T01:21:35;-3.50;86.00
35491;DHT22;21605;52.068;20.806;2023-02-28T01:24:07;-3.00;87.60
35491;DHT22;21605;52.068;20.806;2023-02-28T01:26:33;-3.00;87.30
35491;DHT22;21605;52.068;20.806;2023-02-28T01:28:58;-3.00;87.60
35491;DHT22;21605;52.068;20.806;2023-02-28T01:31:24;-3.10;87.90
35491;DHT22;21605;52.068;20.806;2023-02-28T01:33:50;-3.10;89.10
35491;DHT22;21605;52.068;20.806;2023-02-28T01:36:18;-3.10;88.20
35491;DHT22;21605;52.068;20.806;2023-02-28T01:38:45;-3.10;87.80
35491;DHT22;21605;52.068;20.806;2023-02-28T01:41:19;-3.20;88.20
35491;DHT22;21605;52.068;20.806;2023-02-28T01:46:12;-3.20;88.20
35491;DHT22;21605;52.068;20.806;2023-02-28T01:48:46;-3.20;88.70
35491;DHT22;21605;52.068;20.806;2023-02-28T01:51:20;-3.30;88.30
35491;DHT22;21605;52.068;20.806;2023-02-28T01:53:55;-3.30;88.10
35491;DHT22;21605;52.068;20.806;2023-02-28T01:56:25;-3.30;88.40
35491;DHT22;21605;52.068;20.806;2023-02-28T01:58:53;-3.30;88.50
35491;DHT22;21605;52.068;20.806;2023-02-28T02:01:21;-3.30;89.00
35491;DHT22;21605;52.068;20.806;2023-02-28T02:03:49;-3.40;88.50
35491;DHT22;21605;52.068;20.806;2023-02-28T02:06:21;-3.40;88.20
35491;DHT22;21605;52.068;20.806;2023-02-28T02:08:47;-3.40;88.20
35491;DHT22;21605;52.068;20.806;2023-02-28T02:11:13;-3.40;88.00
35491;DHT22;21605;52.068;20.806;2023-02-28T02:14:17;-3.40;88.10
35491;DHT22;21605;52.068;20.806;2023-02-28T02:25:33;-3.50;88.80
35491;DHT22;21605;52.068;20.806;2023-02-28T02:28:22;-3.50;88.60
35491;DHT22;21605;52.068;20.806;2023-02-28T02:33:44;-3.60;88.80
35491;DHT22;21605;52.068;20.806;2023-02-28T02:36:26;-3.60;89.20
35491;DHT22;21605;52.068;20.806;2023-02-28T02:39:14;-3.60;89.30
35491;DHT22;21605;52.068;20.806;2023-02-28T02:41:52;-3.70;89.70
35491;DHT22;21605;52.068;20.806;2023-02-28T02:46:45;-3.70;89.70
35491;DHT22;21605;52.068;20.806;2023-02-28T02:49:25;-3.70;89.90
35491;DHT22;21605;52.068;20.806;2023-02-28T02:51:53;-3.70;89.90
35491;DHT22;21605;52.068;20.806;2023-02-28T02:54:26;-3.70;90.30
35491;DHT22;21605;52.068;20.806;2023-02-28T02:56:57;-3.80;90.40
35491;DHT22;21605;52.068;20.806;2023-02-28T02:59:24;-3.80;90.60
35491;DHT22;21605;52.068;20.806;2023-02-28T03:01:57;-3.70;90.10
35491;DHT22;21605;52.068;20.806;2023-02-28T03:04:25;-3.80;90.40
35491;DHT22;21605;52.068;20.806;2023-02-28T03:06:53;-3.80;90.30
35491;DHT22;21605;52.068;20.806;2023-02-28T03:09:24;-3.90;90.30
35491;DHT22;21605;52.068;20.806;2023-02-28T03:11:54;-3.90;90.30
35491;DHT22;21605;52.068;20.806;2023-02-28T03:31:01;-4.00;91.70
35491;DHT22;21605;52.068;20.806;2023-02-28T03:33:48;-4.00;91.30
35491;DHT22;21605;52.068;20.806;2023-02-28T03:36:22;-4.00;91.40
35491;DHT22;21605;52.068;20.806;2023-02-28T03:39:19;-4.00;91.50
35491;DHT22;21605;52.068;20.806;2023-02-28T03:41:51;-4.00;91.70
35491;DHT22;21605;52.068;20.806;2023-02-28T03:44:23;-4.00;91.60
35491;DHT22;21605;52.068;20.806;2023-02-28T03:47:00;-4.00;91.80
35491;DHT22;21605;52.068;20.806;2023-02-28T03:49:35;-4.00;91.80
35491;DHT22;21605;52.068;20.806;2023-02-28T03:52:03;-4.10;92.30
35491;DHT22;21605;52.068;20.806;2023-02-28T03:54:34;-4.10;92.10
35491;DHT22;21605;52.068;20.806;2023-02-28T04:00:35;-4.10;91.90
35491;DHT22;21605;52.068;20.806;2023-02-28T04:03:02;-4.10;91.70
35491;DHT22;21605;52.068;20.806;2023-02-28T04:05:28;-4.10;91.90
35491;DHT22;21605;52.068;20.806;2023-02-28T04:08:04;-4.10;92.10
35491;DHT22;21605;52.068;20.806;2023-02-28T04:13:45;-4.10;92.40
35491;DHT22;21605;52.068;20.806;2023-02-28T04:16:10;-4.10;92.70
35491;DHT22;21605;52.068;20.806;2023-02-28T04:18:38;-4.10;92.80
35491;DHT22;21605;52.068;20.806;2023-02-28T04:21:04;-4.10;93.00
35491;DHT22;21605;52.068;20.806;2023-02-28T04:23:49;-4.10;93.00
35491;DHT22;21605;52.068;20.806;2023-02-28T04:26:15;-4.10;92.70
35491;DHT22;21605;52.068;20.806;2023-02-28T04:28:41;-4.10;92.90
35491;DHT22;21605;52.068;20.806;2023-02-28T04:31:15;-4.10;92.70
35491;DHT22;21605;52.068;20.806;2023-02-28T04:33:41;-4.10;92.50
35491;DHT22;21605;52.068;20.806;2023-02-28T04:36:13;-4.10;92.90
35491;DHT22;21605;52.068;20.806;2023-02-28T04:38:40;-4.10;93.00
35491;DHT22;21605;52.068;20.806;2023-02-28T04:41:25;-4.10;93.00
35491;DHT22;21605;52.068;20.806;2023-02-28T04:43:51;-4.30;92.90
35491;DHT22;21605;52.068;20.806;2023-02-28T04:46:18;-4.10;92.90
35491;DHT22;21605;52.068;20.806;2023-02-28T04:48:44;-4.10;92.80
35491;DHT22;21605;52.068;20.806;2023-02-28T04:51:12;-4.10;93.00
35491;DHT22;21605;52.068;20.806;2023-02-28T04:53:39;-4.10;93.10
35491;DHT22;21605;52.068;20.806;2023-02-28T04:56:06;-4.10;93.00
35491;DHT22;21605;52.068;20.806;2023-02-28T04:58:33;-4.20;93.30
35491;DHT22;21605;52.068;20.806;2023-02-28T05:01:07;-4.20;93.60
35491;DHT22;21605;52.068;20.806;2023-02-28T05:03:43;-4.20;93.60
35491;DHT22;21605;52.068;20.806;2023-02-28T05:06:15;-4.20;93.90
35491;DHT22;21605;52.068;20.806;2023-02-28T05:08:41;-4.20;94.20
35491;DHT22;21605;52.068;20.806;2023-02-28T05:11:17;-4.20;94.20
35491;DHT22;21605;52.068;20.806;2023-02-28T05:13:43;-4.20;94.10
35491;DHT22;21605;52.068;20.806;2023-02-28T05:16:14;-4.20;94.20
35491;DHT22;21605;52.068;20.806;2023-02-28T05:18:40;-4.20;94.40
35491;DHT22;21605;52.068;20.806;2023-02-28T05:21:06;-4.20;94.40
35491;DHT22;21605;52.068;20.806;2023-02-28T05:23:32;-4.20;94.60
35491;DHT22;21605;52.068;20.806;2023-02-28T05:25:58;-4.20;94.70
35491;DHT22;21605;52.068;20.806;2023-02-28T05:28:24;-4.20;94.80
35491;DHT22;21605;52.068;20.806;2023-02-28T05:30:49;-4.20;94.90
35491;DHT22;21605;52.068;20.806;2023-02-28T05:33:15;-4.20;94.80
35491;DHT22;21605;52.068;20.806;2023-02-28T05:35:41;-4.20;94.90
35491;DHT22;21605;52.068;20.806;2023-02-28T05:38:08;-4.20;94.70
35491;DHT22;21605;52.068;20.806;2023-02-28T05:40:38;-4.20;94.60
35491;DHT22;21605;52.068;20.806;2023-02-28T05:43:05;-4.20;94.60
35491;DHT22;21605;52.068;20.806;2023-02-28T05:45:31;-4.20;94.80
35491;DHT22;21605;52.068;20.806;2023-02-28T05:47:56;-4.20;94.80
35491;DHT22;21605;52.068;20.806;2023-02-28T05:50:22;-4.20;94.80
35491;DHT22;21605;52.068;20.806;2023-02-28T05:52:51;-4.20;95.20
35491;DHT22;21605;52.068;20.806;2023-02-28T05:55:16;-4.20;95.00
35491;DHT22;21605;52.068;20.806;2023-02-28T05:57:42;-4.20;95.10
35491;DHT22;21605;52.068;20.806;2023-02-28T06:00:09;-4.20;95.00
35491;DHT22;21605;52.068;20.806;2023-02-28T06:02:35;-4.10;95.10
35491;DHT22;21605;52.068;20.806;2023-02-28T06:05:00;-4.10;95.00
35491;DHT22;21605;52.068;20.806;2023-02-28T06:07:26;-4.10;95.40
35491;DHT22;21605;52.068;20.806;2023-02-28T06:09:52;-4.10;95.40
35491;DHT22;21605;52.068;20.806;2023-02-28T06:12:17;-4.10;95.50
35491;DHT22;21605;52.068;20.806;2023-02-28T06:14:43;-4.00;95.50
35491;DHT22;21605;52.068;20.806;2023-02-28T06:17:09;-4.00;95.50
35491;DHT22;21605;52.068;20.806;2023-02-28T06:19:42;-3.90;95.90
35491;DHT22;21605;52.068;20.806;2023-02-28T06:22:08;-3.90;96.40
35491;DHT22;21605;52.068;20.806;2023-02-28T06:24:33;-3.90;96.40
35491;DHT22;21605;52.068;20.806;2023-02-28T06:26:59;-3.80;96.50
35491;DHT22;21605;52.068;20.806;2023-02-28T06:29:33;-3.70;96.80
35491;DHT22;21605;52.068;20.806;2023-02-28T06:31:59;-3.70;97.10
35491;DHT22;21605;52.068;20.806;2023-02-28T06:34:25;-3.50;98.10
35491;DHT22;21605;52.068;20.806;2023-02-28T06:36:51;-3.10;98.70
35491;DHT22;21605;52.068;20.806;2023-02-28T06:39:20;-2.60;99.10
35491;DHT22;21605;52.068;20.806;2023-02-28T06:41:46;-2.30;99.60
35491;DHT22;21605;52.068;20.806;2023-02-28T06:44:14;-2.30;99.20
35491;DHT22;21605;52.068;20.806;2023-02-28T06:46:41;-2.20;99.60
35491;DHT22;21605;52.068;20.806;2023-02-28T06:49:07;-2.20;99.20
35491;DHT22;21605;52.068;20.806;2023-02-28T06:51:38;-2.20;99.20
35491;DHT22;21605;52.068;20.806;2023-02-28T06:54:04;-2.10;99.70
35491;DHT22;21605;52.068;20.806;2023-02-28T06:56:30;-1.80;99.90
35491;DHT22;21605;52.068;20.806;2023-02-28T06:58:56;-0.80;99.90
35491;DHT22;21605;52.068;20.806;2023-02-28T07:01:22;0.30;99.90
35491;DHT22;21605;52.068;20.806;2023-02-28T07:03:49;1.30;99.90
35491;DHT22;21605;52.068;20.806;2023-02-28T07:06:24;1.00;99.60
35491;DHT22;21605;52.068;20.806;2023-02-28T07:08:51;0.80;98.60
35491;DHT22;21605;52.068;20.806;2023-02-28T07:11:22;1.00;98.40
35491;DHT22;21605;52.068;20.806;2023-02-28T07:13:51;1.40;98.00
35491;DHT22;21605;52.068;20.806;2023-02-28T07:16:17;2.00;97.70
35491;DHT22;21605;52.068;20.806;2023-02-28T07:18:43;2.10;96.80
35491;DHT22;21605;52.068;20.806;2023-02-28T07:21:10;2.30;96.60
35491;DHT22;21605;52.068;20.806;2023-02-28T07:23:36;2.20;95.80
35491;DHT22;21605;52.068;20.806;2023-02-28T07:26:03;2.10;95.70
35491;DHT22;21605;52.068;20.806;2023-02-28T07:28:29;2.30;95.40
35491;DHT22;21605;52.068;20.806;2023-02-28T07:30:55;3.10;94.90
35491;DHT22;21605;52.068;20.806;2023-02-28T07:33:26;3.40;94.20
35491;DHT22;21605;52.068;20.806;2023-02-28T07:35:56;3.60;94.60
35491;DHT22;21605;52.068;20.806;2023-02-28T07:38:25;3.60;93.80
35491;DHT22;21605;52.068;20.806;2023-02-28T07:40:51;3.30;92.80
35491;DHT22;21605;52.068;20.806;2023-02-28T07:43:26;3.20;92.80
35491;DHT22;21605;52.068;20.806;2023-02-28T07:45:51;2.90;91.70
35491;DHT22;21605;52.068;20.806;2023-02-28T07:48:23;2.80;91.90
35491;DHT22;21605;52.068;20.806;2023-02-28T07:50:55;2.70;92.90
35491;DHT22;21605;52.068;20.806;2023-02-28T07:53:28;2.60;92.50
35491;DHT22;21605;52.068;20.806;2023-02-28T07:55:59;2.50;92.00
35491;DHT22;21605;52.068;20.806;2023-02-28T07:58:30;2.30;92.10
35491;DHT22;21605;52.068;20.806;2023-02-28T08:00:56;2.20;91.70
35491;DHT22;21605;52.068;20.806;2023-02-28T08:03:27;1.90;92.10
35491;DHT22;21605;52.068;20.806;2023-02-28T08:05:53;2.00;91.80
35491;DHT22;21605;52.068;20.806;2023-02-28T08:08:24;2.00;91.70
35491;DHT22;21605;52.068;20.806;2023-02-28T08:10:54;1.90;91.50
35491;DHT22;21605;52.068;20.806;2023-02-28T08:13:30;1.80;91.00
35491;DHT22;21605;52.068;20.806;2023-02-28T08:15:56;1.90;92.30
35491;DHT22;21605;52.068;20.806;2023-02-28T08:18:32;1.90;92.10
35491;DHT22;21605;52.068;20.806;2023-02-28T08:20:58;1.90;92.00
35491;DHT22;21605;52.068;20.806;2023-02-28T08:23:25;2.00;92.30
35491;DHT22;21605;52.068;20.806;2023-02-28T08:25:55;2.00;91.60
35491;DHT22;21605;52.068;20.806;2023-02-28T08:28:33;2.00;91.80
35491;DHT22;21605;52.068;20.806;2023-02-28T08:30:59;2.00;91.90
35491;DHT22;21605;52.068;20.806;2023-02-28T08:33:25;2.00;92.00
35491;DHT22;21605;52.068;20.806;2023-02-28T08:35:55;2.00;91.60
35491;DHT22;21605;52.068;20.806;2023-02-28T08:38:22;2.10;92.00
35491;DHT22;21605;52.068;20.806;2023-02-28T08:40:48;2.20;92.10
35491;DHT22;21605;52.068;20.806;2023-02-28T08:43:13;2.20;91.40
35491;DHT22;21605;52.068;20.806;2023-02-28T08:45:39;2.30;91.40
35491;DHT22;21605;52.068;20.806;2023-02-28T08:48:04;2.80;92.70
35491;DHT22;21605;52.068;20.806;2023-02-28T08:50:30;3.50;93.70
35491;DHT22;21605;52.068;20.806;2023-02-28T08:52:56;4.50;94.90
35491;DHT22;21605;52.068;20.806;2023-02-28T08:55:22;5.70;93.80
35491;DHT22;21605;52.068;20.806;2023-02-28T08:57:48;6.80;90.80
35491;DHT22;21605;52.068;20.806;2023-02-28T09:00:14;7.90;87.00
35491;DHT22;21605;52.068;20.806;2023-02-28T09:02:40;9.00;84.40
35491;DHT22;21605;52.068;20.806;2023-02-28T09:05:08;10.00;82.40
35491;DHT22;21605;52.068;20.806;2023-02-28T09:07:34;10.90;74.90
35491;DHT22;21605;52.068;20.806;2023-02-28T09:09:59;11.80;69.60
35491;DHT22;21605;52.068;20.806;2023-02-28T09:12:27;12.50;71.40
35491;DHT22;21605;52.068;20.806;2023-02-28T09:14:57;13.10;67.70
35491;DHT22;21605;52.068;20.806;2023-02-28T09:17:27;13.70;67.90
35491;DHT22;21605;52.068;20.806;2023-02-28T09:19:53;14.20;66.90
35491;DHT22;21605;52.068;20.806;2023-02-28T09:22:28;14.50;65.30
35491;DHT22;21605;52.068;20.806;2023-02-28T09:24:54;13.90;56.00
35491;DHT22;21605;52.068;20.806;2023-02-28T09:27:24;14.40;60.80
35491;DHT22;21605;52.068;20.806;2023-02-28T09:29:50;14.30;55.40
35491;DHT22;21605;52.068;20.806;2023-02-28T09:32:15;14.30;53.50
35491;DHT22;21605;52.068;20.806;2023-02-28T09:34:43;14.50;55.80
35491;DHT22;21605;52.068;20.806;2023-02-28T09:37:08;14.70;55.10
35491;DHT22;21605;52.068;20.806;2023-02-28T09:39:34;14.80;53.10
35491;DHT22;21605;52.068;20.806;2023-02-28T09:42:01;14.90;55.20
35491;DHT22;21605;52.068;20.806;2023-02-28T09:44:33;14.70;52.10
35491;DHT22;21605;52.068;20.806;2023-02-28T09:47:01;14.60;51.80
35491;DHT22;21605;52.068;20.806;2023-02-28T09:49:48;14.80;51.00
35491;DHT22;21605;52.068;20.806;2023-02-28T09:52:19;14.50;49.30
35491;DHT22;21605;52.068;20.806;2023-02-28T09:55:19;14.60;50.70
35491;DHT22;21605;52.068;20.806;2023-02-28T09:57:54;15.40;62.00
35491;DHT22;21605;52.068;20.806;2023-02-28T10:00:34;15.70;49.90
35491;DHT22;21605;52.068;20.806;2023-02-28T10:08:43;16.50;55.70
35491;DHT22;21605;52.068;20.806;2023-02-28T10:11:16;17.10;52.20
35491;DHT22;21605;52.068;20.806;2023-02-28T10:14:10;16.80;47.30
35491;DHT22;21605;52.068;20.806;2023-02-28T10:19:34;17.00;48.80
35491;DHT22;21605;52.068;20.806;2023-02-28T10:22:20;16.90;45.30
35491;DHT22;21605;52.068;20.806;2023-02-28T10:24:49;17.00;45.90
35491;DHT22;21605;52.068;20.806;2023-02-28T10:29:53;17.30;44.30
35491;DHT22;21605;52.068;20.806;2023-02-28T10:32:24;17.50;46.90
35491;DHT22;21605;52.068;20.806;2023-02-28T10:37:38;17.70;44.10
35491;DHT22;21605;52.068;20.806;2023-02-28T10:40:06;17.70;44.00
35491;DHT22;21605;52.068;20.806;2023-02-28T10:42:32;17.70;43.70
35491;DHT22;21605;52.068;20.806;2023-02-28T10:45:15;17.60;41.40
35491;DHT22;21605;52.068;20.806;2023-02-28T10:48:05;17.40;45.00
35491;DHT22;21605;52.068;20.806;2023-02-28T10:53:34;17.30;41.20
35491;DHT22;21605;52.068;20.806;2023-02-28T11:00:54;18.10;45.30
35491;DHT22;21605;52.068;20.806;2023-02-28T11:03:34;18.30;44.30
35491;DHT22;21605;52.068;20.806;2023-02-28T11:06:06;18.40;42.20
35491;DHT22;21605;52.068;20.806;2023-02-28T11:08:34;18.70;43.20
35491;DHT22;21605;52.068;20.806;2023-02-28T11:11:09;18.50;41.00
35491;DHT22;21605;52.068;20.806;2023-02-28T11:13:36;18.50;40.40
35491;DHT22;21605;52.068;20.806;2023-02-28T11:16:09;18.30;41.90
35491;DHT22;21605;52.068;20.806;2023-02-28T11:18:44;18.50;42.50
35491;DHT22;21605;52.068;20.806;2023-02-28T11:21:21;18.50;41.70
35491;DHT22;21605;52.068;20.806;2023-02-28T11:23:49;18.50;41.60
35491;DHT22;21605;52.068;20.806;2023-02-28T11:26:16;18.30;42.40
35491;DHT22;21605;52.068;20.806;2023-02-28T11:29:10;18.40;42.10
35491;DHT22;21605;52.068;20.806;2023-02-28T11:31:36;18.50;45.90
35491;DHT22;21605;52.068;20.806;2023-02-28T11:34:23;18.30;43.50
35491;DHT22;21605;52.068;20.806;2023-02-28T11:37:11;17.70;41.60
35491;DHT22;21605;52.068;20.806;2023-02-28T11:39:37;17.40;42.50
35491;DHT22;21605;52.068;20.806;2023-02-28T11:51:49;16.40;50.60
35491;DHT22;21605;52.068;20.806;2023-02-28T12:02:54;14.90;46.90
35491;DHT22;21605;52.068;20.806;2023-02-28T12:10:58;13.50;46.60
35491;DHT22;21605;52.068;20.806;2023-02-28T12:21:43;12.10;49.00
35491;DHT22;21605;52.068;20.806;2023-02-28T12:24:23;11.80;49.70
35491;DHT22;21605;52.068;20.806;2023-02-28T12:26:52;11.50;50.10
35491;DHT22;21605;52.068;20.806;2023-02-28T12:32:23;10.60;48.90
35491;DHT22;21605;52.068;20.806;2023-02-28T12:34:52;10.30;50.60
35491;DHT22;21605;52.068;20.806;2023-02-28T12:37:28;10.50;51.80
35491;DHT22;21605;52.068;20.806;2023-02-28T12:40:12;10.10;51.70
35491;DHT22;21605;52.068;20.806;2023-02-28T12:42:44;9.80;52.40
35491;DHT22;21605;52.068;20.806;2023-02-28T12:45:22;9.70;52.80
35491;DHT22;21605;52.068;20.806;2023-02-28T12:47:57;9.50;53.00
35491;DHT22;21605;52.068;20.806;2023-02-28T12:50:26;9.40;54.60
35491;DHT22;21605;52.068;20.806;2023-02-28T13:09:17;8.50;55.00
35491;DHT22;21605;52.068;20.806;2023-02-28T13:11:48;8.40;55.40
35491;DHT22;21605;52.068;20.806;2023-02-28T13:24:57;8.00;55.90
35491;DHT22;21605;52.068;20.806;2023-02-28T13:27:24;8.00;57.70
35491;DHT22;21605;52.068;20.806;2023-02-28T13:36:26;7.80;57.10
35491;DHT22;21605;52.068;20.806;2023-02-28T13:39:52;7.60;57.10
35491;DHT22;21605;52.068;20.806;2023-02-28T13:47:43;7.30;57.60
35491;DHT22;21605;52.068;20.806;2023-02-28T13:50:37;7.30;58.10
35491;DHT22;21605;52.068;20.806;2023-02-28T13:53:24;7.30;58.30
35491;DHT22;21605;52.068;20.806;2023-02-28T13:59:06;7.20;58.20
35491;DHT22;21605;52.068;20.806;2023-02-28T14:01:47;7.20;58.20
35491;DHT22;21605;52.068;20.806;2023-02-28T14:04:54;7.00;58.50
35491;DHT22;21605;52.068;20.806;2023-02-28T14:07:26;6.90;59.00
35491;DHT22;21605;52.068;20.806;2023-02-28T14:10:36;6.90;58.90
35491;DHT22;21605;52.068;20.806;2023-02-28T14:16:04;6.80;59.20
35491;DHT22;21605;52.068;20.806;2023-02-28T14:18:51;6.80;59.10
35491;DHT22;21605;52.068;20.806;2023-02-28T14:21:23;6.70;59.30
35491;DHT22;21605;52.068;20.806;2023-02-28T14:24:09;6.70;59.40
35491;DHT22;21605;52.068;20.806;2023-02-28T14:26:53;6.70;59.70
35491;DHT22;21605;52.068;20.806;2023-02-28T14:32:45;6.50;60.00
35491;DHT22;21605;52.068;20.806;2023-02-28T14:37:47;6.20;60.20
35491;DHT22;21605;52.068;20.806;2023-02-28T14:40:28;6.10;60.30
35491;DHT22;21605;52.068;20.806;2023-02-28T14:42:57;6.00;60.70
35491;DHT22;21605;52.068;20.806;2023-02-28T14:45:25;6.00;61.00
35491;DHT22;21605;52.068;20.806;2023-02-28T14:47:52;5.90;61.10
35491;DHT22;21605;52.068;20.806;2023-02-28T14:50:23;5.90;61.30
35491;DHT22;21605;52.068;20.806;2023-02-28T14:52:53;5.80;61.30
35491;DHT22;21605;52.068;20.806;2023-02-28T14:55:23;5.70;61.70
35491;DHT22;21605;52.068;20.806;2023-02-28T14:57:55;5.60;61.50
35491;DHT22;21605;52.068;20.806;2023-02-28T15:00:24;5.60;61.70
35491;DHT22;21605;52.068;20.806;2023-02-28T15:02:51;5.50;61.70
35491;DHT22;21605;52.068;20.806;2023-02-28T15:05:35;5.40;61.80
35491;DHT22;21605;52.068;20.806;2023-02-28T15:11:04;5.30;62.10
35491;DHT22;21605;52.068;20.806;2023-02-28T15:13:46;5.20;62.20
35491;DHT22;21605;52.068;20.806;2023-02-28T15:16:33;5.20;62.50
35491;DHT22;21605;52.068;20.806;2023-02-28T15:19:08;5.10;62.50
35491;DHT22;21605;52.068;20.806;2023-02-28T15:21:48;5.00;62.70
35491;DHT22;21605;52.068;20.806;2023-02-28T15:24:22;5.00;62.90
35491;DHT22;21605;52.068;20.806;2023-02-28T15:26:54;4.90;62.80
35491;DHT22;21605;52.068;20.806;2023-02-28T15:29:23;4.90;64.10
35491;DHT22;21605;52.068;20.806;2023-02-28T15:32:02;4.80;63.30
35491;DHT22;21605;52.068;20.806;2023-02-28T15:34:45;4.70;63.30
35491;DHT22;21605;52.068;20.806;2023-02-28T15:40:10;4.60;63.90
35491;DHT22;21605;52.068;20.806;2023-02-28T15:43:15;4.50;64.10
35491;DHT22;21605;52.068;20.806;2023-02-28T15:45:55;4.40;64.10
35491;DHT22;21605;52.068;20.806;2023-02-28T15:48:33;4.40;64.20
35491;DHT22;21605;52.068;20.806;2023-02-28T15:51:23;4.30;64.20
35491;DHT22;21605;52.068;20.806;2023-02-28T15:54:07;4.20;64.40
35491;DHT22;21605;52.068;20.806;2023-02-28T15:56:47;4.10;64.40
35491;DHT22;21605;52.068;20.806;2023-02-28T15:59:21;4.10;65.90
35491;DHT22;21605;52.068;20.806;2023-02-28T16:02:12;3.90;64.90
35491;DHT22;21605;52.068;20.806;2023-02-28T16:07:35;3.80;65.10
35491;DHT22;21605;52.068;20.806;2023-02-28T16:10:01;3.70;65.40
35491;DHT22;21605;52.068;20.806;2023-02-28T16:12:32;3.60;65.60
35491;DHT22;21605;52.068;20.806;2023-02-28T16:15:02;3.50;66.10
35491;DHT22;21605;52.068;20.806;2023-02-28T16:17:31;3.40;66.00
35491;DHT22;21605;52.068;20.806;2023-02-28T16:19:58;3.30;65.80
35491;DHT22;21605;52.068;20.806;2023-02-28T16:22:25;3.20;65.70
35491;DHT22;21605;52.068;20.806;2023-02-28T16:24:50;3.10;66.20
35491;DHT22;21605;52.068;20.806;2023-02-28T16:27:32;3.00;66.90
35491;DHT22;21605;52.068;20.806;2023-02-28T16:29:58;2.90;67.30
35491;DHT22;21605;52.068;20.806;2023-02-28T16:32:24;2.80;67.50
35491;DHT22;21605;52.068;20.806;2023-02-28T16:34:55;2.70;67.40
35491;DHT22;21605;52.068;20.806;2023-02-28T16:37:20;2.70;67.20
35491;DHT22;21605;52.068;20.806;2023-02-28T16:39:47;2.60;67.90
35491;DHT22;21605;52.068;20.806;2023-02-28T16:42:33;2.50;68.30
35491;DHT22;21605;52.068;20.806;2023-02-28T16:44:58;2.40;68.70
35491;DHT22;21605;52.068;20.806;2023-02-28T16:47:24;2.30;69.10
35491;DHT22;21605;52.068;20.806;2023-02-28T16:49:52;2.20;69.00
35491;DHT22;21605;52.068;20.806;2023-02-28T16:52:17;2.10;68.80
35491;DHT22;21605;52.068;20.806;2023-02-28T16:54:43;2.00;69.60
35491;DHT22;21605;52.068;20.806;2023-02-28T16:57:35;2.00;70.00
35491;DHT22;21605;52.068;20.806;2023-02-28T17:00:01;1.80;70.50
35491;DHT22;21605;52.068;20.806;2023-02-28T17:02:28;1.80;70.50
35491;DHT22;21605;52.068;20.806;2023-02-28T17:04:53;1.70;70.60
35491;DHT22;21605;52.068;20.806;2023-02-28T17:07:19;1.70;70.10
35491;DHT22;21605;52.068;20.806;2023-02-28T17:09:50;1.70;69.70
35491;DHT22;21605;52.068;20.806;2023-02-28T17:12:15;1.70;68.80
35491;DHT22;21605;52.068;20.806;2023-02-28T17:14:50;1.70;68.30
35491;DHT22;21605;52.068;20.806;2023-02-28T17:17:20;1.70;68.90
35491;DHT22;21605;52.068;20.806;2023-02-28T17:19:52;1.50;70.30
35491;DHT22;21605;52.068;20.806;2023-02-28T17:22:17;1.40;71.40
35491;DHT22;21605;52.068;20.806;2023-02-28T17:24:52;1.30;71.60
35491;DHT22;21605;52.068;20.806;2023-02-28T17:27:24;1.20;71.90
35491;DHT22;21605;52.068;20.806;2023-02-28T17:29:50;1.20;72.30
35491;DHT22;21605;52.068;20.806;2023-02-28T17:32:16;1.10;72.20
35491;DHT22;21605;52.068;20.806;2023-02-28T17:34:54;1.10;72.30
35491;DHT22;21605;52.068;20.806;2023-02-28T17:37:19;1.00;72.20
35491;DHT22;21605;52.068;20.806;2023-02-28T17:39:45;1.00;72.30
35491;DHT22;21605;52.068;20.806;2023-02-28T17:42:10;0.90;72.50
35491;DHT22;21605;52.068;20.806;2023-02-28T17:44:36;0.90;72.90
35491;DHT22;21605;52.068;20.806;2023-02-28T17:47:04;0.80;73.20
35491;DHT22;21605;52.068;20.806;2023-02-28T17:49:29;0.80;73.00
35491;DHT22;21605;52.068;20.806;2023-02-28T17:51:55;0.80;72.90
35491;DHT22;21605;52.068;20.806;2023-02-28T17:54:20;0.70;73.30
35491;DHT22;21605;52.068;20.806;2023-02-28T17:56:46;0.70;73.30
35491;DHT22;21605;52.068;20.806;2023-02-28T17:59:12;0.70;71.40
35491;DHT22;21605;52.068;20.806;2023-02-28T18:01:38;0.70;71.70
35491;DHT22;21605;52.068;20.806;2023-02-28T18:04:04;0.60;72.00
35491;DHT22;21605;52.068;20.806;2023-02-28T18:06:39;0.50;73.70
35491;DHT22;21605;52.068;20.806;2023-02-28T18:09:16;0.50;72.50
35491;DHT22;21605;52.068;20.806;2023-02-28T18:11:53;0.50;72.20
35491;DHT22;21605;52.068;20.806;2023-02-28T18:14:21;0.40;72.90
35491;DHT22;21605;52.068;20.806;2023-02-28T18:16:53;0.40;73.40
35491;DHT22;21605;52.068;20.806;2023-02-28T18:19:19;0.40;73.90
35491;DHT22;21605;52.068;20.806;2023-02-28T18:21:52;0.30;74.70